»·PEaware :: N420VL KSBA-KSNA

N420VL :: KSBA-KSNA

FLIGHT INFORMATION

Flight Status: Arrived
Operator: Privately registered:
United States
More flights under this callsign
Pilot: Chris V. (11989)
Aircraft: CESSNA T210 TURBO CENTURION
(T210)
More flights by this aircraft type
Origin: KSBA Santa Barbara Mun
United States
Destination: KSNA John Wayne-Orange Co
United States
More flights between these airports :: More routes between these airports
Route: +KWANG FIM V186 VNY V186 BAYJY V363 POXKU
File this flight plan on PilotEdge
Remarks:
Altitude:
(Current/Filed)
5,000ft
Speed:
(Current/Filed)
150kts
Departed: 12-Apr-18 03:54 PM
Arrived: 12-Apr-18 04:45 PM
Distance/Time
Traveled:
108nm/0:51
Distance/Time
To Go:
Arrived

Flight Plot

Page will automatically refresh every two minutes.

Flight plan parsing failed; only flown route is shown


Map Options




Map Legend


Flown Route
Filed Route
Departure Airport
Arrival Airport
Navaid (VOR, NDB)
Fix

Horizontal Profiles

Position Reports

Time Latitude Longitude Heading Altitude Ground
Speed
12-Apr-18 15:23 34.430241 -119.842746 248 16ft 0kts
12-Apr-18 15:24 34.430241 -119.842746 248 16ft 0kts
12-Apr-18 15:25 34.430241 -119.842746 248 16ft 0kts
12-Apr-18 15:26 34.430241 -119.842746 248 16ft 0kts
12-Apr-18 15:27 34.430241 -119.842746 247 16ft 0kts
12-Apr-18 15:28 34.430241 -119.842746 248 16ft 0kts
12-Apr-18 15:29 34.430241 -119.842746 248 16ft 0kts
12-Apr-18 15:30 34.430241 -119.842746 248 16ft 0kts
12-Apr-18 15:31 34.430241 -119.842746 248 16ft 0kts
12-Apr-18 15:32 34.430240 -119.842746 248 16ft 0kts
12-Apr-18 15:33 34.430240 -119.842746 248 16ft 0kts
12-Apr-18 15:34 34.430241 -119.842746 248 16ft 0kts
12-Apr-18 15:35 34.430240 -119.842746 248 16ft 0kts
12-Apr-18 15:36 34.430240 -119.842746 248 16ft 0kts
12-Apr-18 15:37 34.430240 -119.842746 248 16ft 0kts
12-Apr-18 15:38 34.430241 -119.842746 248 16ft 0kts
12-Apr-18 15:39 34.430241 -119.842746 248 16ft 0kts
12-Apr-18 15:40 34.430241 -119.842746 248 16ft 0kts
12-Apr-18 15:41 34.430241 -119.842746 248 16ft 0kts
12-Apr-18 15:42 34.430240 -119.842746 248 16ft 0kts
12-Apr-18 15:43 34.430241 -119.842746 248 16ft 0kts
12-Apr-18 15:44 34.430240 -119.842746 248 16ft 0kts
12-Apr-18 15:45 34.430241 -119.842746 248 16ft 0kts
12-Apr-18 15:46 34.429979 -119.842573 137 16ft 0kts
12-Apr-18 15:47 34.429979 -119.842573 137 16ft 0kts
12-Apr-18 15:48 34.429942 -119.842531 135 16ft 0kts
12-Apr-18 15:49 34.429461 -119.842231 160 16ft 17kts
12-Apr-18 15:50 34.428984 -119.838307 86 16ft 22kts
12-Apr-18 15:51 34.428710 -119.835221 172 16ft 0kts
12-Apr-18 15:52 34.428477 -119.835194 177 16ft 15kts
12-Apr-18 15:53 34.427580 -119.849291 277 285ft 96kts
12-Apr-18 15:54 34.427771 -119.886496 275 1277ft 125kts
12-Apr-18 15:55 34.428153 -119.928950 279 2219ft 128kts
12-Apr-18 15:56 34.406418 -119.960838 172 3037ft 167kts
12-Apr-18 15:57 34.363443 -119.938287 154 3854ft 167kts
12-Apr-18 15:58 34.354038 -119.894232 103 4809ft 159kts
12-Apr-18 15:59 34.332201 -119.841404 97 5005ft 184kts
12-Apr-18 16:00 34.325834 -119.780219 82 5000ft 177kts
12-Apr-18 16:01 34.322129 -119.722218 85 4991ft 171kts
12-Apr-18 16:02 34.318972 -119.664700 84 4996ft 171kts
12-Apr-18 16:03 34.315108 -119.606580 83 4981ft 174kts
12-Apr-18 16:04 34.311545 -119.547549 88 5000ft 177kts
12-Apr-18 16:05 34.311411 -119.487945 74 4976ft 177kts
12-Apr-18 16:06 34.316070 -119.428109 75 4976ft 179kts
12-Apr-18 16:07 34.320462 -119.367825 76 5027ft 179kts
12-Apr-18 16:08 34.324562 -119.316965 79 5032ft 183kts
12-Apr-18 16:09 34.327488 -119.277277 77 5019ft 185kts
12-Apr-18 16:10 34.332098 -119.215737 77 5023ft 183kts
12-Apr-18 16:11 34.336692 -119.154654 77 5019ft 181kts
12-Apr-18 16:12 34.341191 -119.094668 75 5010ft 177kts
12-Apr-18 16:13 34.345518 -119.035815 76 5013ft 174kts
12-Apr-18 16:14 34.349833 -118.977696 76 5022ft 172kts
12-Apr-18 16:15 34.354139 -118.918247 77 5005ft 179kts
12-Apr-18 16:16 34.349072 -118.858665 110 5000ft 186kts
12-Apr-18 16:17 34.329486 -118.800496 110 5003ft 187kts
12-Apr-18 16:18 34.309591 -118.742203 108 5012ft 187kts
12-Apr-18 16:19 34.289674 -118.683958 108 5017ft 187kts
12-Apr-18 16:20 34.269915 -118.626246 105 5018ft 185kts
12-Apr-18 16:21 34.250529 -118.569798 102 5021ft 181kts
12-Apr-18 16:22 34.231534 -118.514524 102 5025ft 177kts
12-Apr-18 16:23 34.213620 -118.459598 99 5021ft 177kts
12-Apr-18 16:24 34.196910 -118.403345 102 5029ft 178kts
12-Apr-18 16:25 34.180325 -118.348419 100 5030ft 178kts
12-Apr-18 16:26 34.165615 -118.300077 102 5018ft 180kts
12-Apr-18 16:27 34.148462 -118.243981 103 5014ft 180kts
12-Apr-18 16:28 34.131108 -118.186955 105 5009ft 181kts
12-Apr-18 16:29 34.113661 -118.130297 105 5004ft 182kts
12-Apr-18 16:30 34.096181 -118.073243 106 4993ft 183kts
12-Apr-18 16:31 34.078367 -118.015267 107 4992ft 185kts
12-Apr-18 16:32 34.060427 -117.956917 110 4992ft 187kts
12-Apr-18 16:33 34.042332 -117.898240 109 4991ft 187kts
12-Apr-18 16:34 34.024284 -117.839865 110 5024ft 187kts
12-Apr-18 16:35 34.000879 -117.790229 157 5023ft 178kts
12-Apr-18 16:36 33.954973 -117.784478 185 5022ft 167kts
12-Apr-18 16:37 33.908338 -117.783369 186 5025ft 170kts
12-Apr-18 16:38 33.861777 -117.782645 187 4743ft 181kts
12-Apr-18 16:39 33.815627 -117.800883 210 3916ft 177kts
12-Apr-18 16:40 33.766195 -117.810155 207 2664ft 171kts
12-Apr-18 16:41 33.730411 -117.833977 212 1342ft 141kts
12-Apr-18 16:42 33.702176 -117.852004 218 529ft 98kts
12-Apr-18 16:43 33.680188 -117.865965 219 69ft 86kts
12-Apr-18 16:44 33.670455 -117.872212 202 60ft 21kts
12-Apr-18 16:45 33.669381 -117.871944 148 60ft 0kts
12-Apr-18 16:46 33.669136 -117.870757 30 60ft 12kts
12-Apr-18 16:47 33.669964 -117.868513 38 60ft 0kts

Navigation Log

Ident Type
Flight plan parsing failed, navigation log unavailable